sensor_id;sensor_type;location;lat;lon;timestamp;pressure;altitude;pressure_sealevel;temperature
67599;BMP280;62026;39.230;9.122;2023-06-14T00:02:10;100294.69;;;24.00
67599;BMP280;62026;39.230;9.122;2023-06-14T00:04:36;100300.09;;;24.00
67599;BMP280;62026;39.230;9.122;2023-06-14T00:07:03;100306.88;;;23.98
67599;BMP280;62026;39.230;9.122;2023-06-14T00:09:29;100296.09;;;23.98
67599;BMP280;62026;39.230;9.122;2023-06-14T00:11:55;100292.44;;;23.85
67599;BMP280;62026;39.230;9.122;2023-06-14T00:14:21;100293.06;;;23.90
67599;BMP280;62026;39.230;9.122;2023-06-14T00:16:47;100280.56;;;23.94
67599;BMP280;62026;39.230;9.122;2023-06-14T00:19:13;100277.88;;;23.86
67599;BMP280;62026;39.230;9.122;2023-06-14T00:21:40;100274.69;;;23.92
67599;BMP280;62026;39.230;9.122;2023-06-14T00:24:07;100278.47;;;23.91
67599;BMP280;62026;39.230;9.122;2023-06-14T00:26:33;100270.69;;;23.90
67599;BMP280;62026;39.230;9.122;2023-06-14T00:28:59;100271.00;;;23.71
67599;BMP280;62026;39.230;9.122;2023-06-14T00:31:26;100264.97;;;23.74
67599;BMP280;62026;39.230;9.122;2023-06-14T00:33:53;100285.75;;;23.82
67599;BMP280;62026;39.230;9.122;2023-06-14T00:36:19;100277.03;;;23.85
67599;BMP280;62026;39.230;9.122;2023-06-14T00:38:45;100280.22;;;23.87
67599;BMP280;62026;39.230;9.122;2023-06-14T00:41:11;100293.56;;;23.92
67599;BMP280;62026;39.230;9.122;2023-06-14T00:43:37;100292.75;;;24.01
67599;BMP280;62026;39.230;9.122;2023-06-14T00:46:03;100296.09;;;23.98
67599;BMP280;62026;39.230;9.122;2023-06-14T00:48:30;100297.53;;;23.95
67599;BMP280;62026;39.230;9.122;2023-06-14T00:50:59;100293.56;;;23.92
67599;BMP280;62026;39.230;9.122;2023-06-14T00:53:28;100301.00;;;23.87
67599;BMP280;62026;39.230;9.122;2023-06-14T00:55:55;100306.97;;;23.75
67599;BMP280;62026;39.230;9.122;2023-06-14T00:58:22;100309.50;;;23.72
67599;BMP280;62026;39.230;9.122;2023-06-14T01:00:48;100309.66;;;23.75
67599;BMP280;62026;39.230;9.122;2023-06-14T01:03:14;100291.28;;;23.77
67599;BMP280;62026;39.230;9.122;2023-06-14T01:05:52;100303.22;;;23.85
67599;BMP280;62026;39.230;9.122;2023-06-14T01:08:49;100299.44;;;23.94
67599;BMP280;62026;39.230;9.122;2023-06-14T01:11:26;100303.56;;;23.92
67599;BMP280;62026;39.230;9.122;2023-06-14T01:13:56;100305.09;;;23.84
67599;BMP280;62026;39.230;9.122;2023-06-14T01:16:23;100306.56;;;23.90
67599;BMP280;62026;39.230;9.122;2023-06-14T01:18:52;100313.84;;;23.90
67599;BMP280;62026;39.230;9.122;2023-06-14T01:21:26;100317.97;;;23.87
67599;BMP280;62026;39.230;9.122;2023-06-14T01:23:53;100329.56;;;23.88
67599;BMP280;62026;39.230;9.122;2023-06-14T01:26:23;100327.50;;;23.93
67599;BMP280;62026;39.230;9.122;2023-06-14T01:28:53;100341.50;;;23.95
67599;BMP280;62026;39.230;9.122;2023-06-14T01:31:25;100344.66;;;23.98
67599;BMP280;62026;39.230;9.122;2023-06-14T01:33:53;100347.03;;;23.99
67599;BMP280;62026;39.230;9.122;2023-06-14T01:36:20;100346.25;;;23.99
67599;BMP280;62026;39.230;9.122;2023-06-14T01:38:49;100344.19;;;24.04
67599;BMP280;62026;39.230;9.122;2023-06-14T01:41:18;100341.03;;;24.02
67599;BMP280;62026;39.230;9.122;2023-06-14T01:43:47;100332.16;;;24.02
67599;BMP280;62026;39.230;9.122;2023-06-14T01:46:15;100330.38;;;23.97
67599;BMP280;62026;39.230;9.122;2023-06-14T01:48:42;100322.28;;;23.97
67599;BMP280;62026;39.230;9.122;2023-06-14T01:51:09;100317.69;;;23.98
67599;BMP280;62026;39.230;9.122;2023-06-14T01:53:35;100315.47;;;24.00
67599;BMP280;62026;39.230;9.122;2023-06-14T01:56:01;100320.88;;;24.00
67599;BMP280;62026;39.230;9.122;2023-06-14T01:58:30;100320.22;;;23.94
67599;BMP280;62026;39.230;9.122;2023-06-14T02:00:57;100317.81;;;23.92
67599;BMP280;62026;39.230;9.122;2023-06-14T02:03:23;100312.28;;;23.98
67599;BMP280;62026;39.230;9.122;2023-06-14T02:05:52;100303.09;;;23.99
67599;BMP280;62026;39.230;9.122;2023-06-14T02:08:18;100295.31;;;23.97
67599;BMP280;62026;39.230;9.122;2023-06-14T02:10:44;100281.50;;;23.99
67599;BMP280;62026;39.230;9.122;2023-06-14T02:13:10;100282.28;;;23.90
67599;BMP280;62026;39.230;9.122;2023-06-14T02:15:36;100283.56;;;23.93
67599;BMP280;62026;39.230;9.122;2023-06-14T02:18:03;100275.97;;;23.95
67599;BMP280;62026;39.230;9.122;2023-06-14T02:20:29;100284.97;;;23.90
67599;BMP280;62026;39.230;9.122;2023-06-14T02:22:56;100276.59;;;23.92
67599;BMP280;62026;39.230;9.122;2023-06-14T02:25:22;100276.28;;;23.93
67599;BMP280;62026;39.230;9.122;2023-06-14T02:27:48;100278.47;;;23.91
67599;BMP280;62026;39.230;9.122;2023-06-14T02:30:14;100275.19;;;23.86
67599;BMP280;62026;39.230;9.122;2023-06-14T02:32:41;100265.78;;;23.83
67599;BMP280;62026;39.230;9.122;2023-06-14T02:35:08;100277.66;;;23.82
67599;BMP280;62026;39.230;9.122;2023-06-14T02:37:35;100277.66;;;23.82
67599;BMP280;62026;39.230;9.122;2023-06-14T02:40:01;100275.28;;;23.81
67599;BMP280;62026;39.230;9.122;2023-06-14T02:42:27;100276.41;;;23.80
67599;BMP280;62026;39.230;9.122;2023-06-14T02:44:53;100277.31;;;23.75
67599;BMP280;62026;39.230;9.122;2023-06-14T02:47:20;100274.31;;;23.77
67599;BMP280;62026;39.230;9.122;2023-06-14T02:49:46;100271.94;;;23.75
67599;BMP280;62026;39.230;9.122;2023-06-14T02:52:15;100275.59;;;23.79
67599;BMP280;62026;39.230;9.122;2023-06-14T02:54:41;100274.63;;;23.75
67599;BMP280;62026;39.230;9.122;2023-06-14T02:57:08;100266.06;;;23.73
67599;BMP280;62026;39.230;9.122;2023-06-14T02:59:35;100277.97;;;23.72
67599;BMP280;62026;39.230;9.122;2023-06-14T03:02:03;100269.06;;;23.72
67599;BMP280;62026;39.230;9.122;2023-06-14T03:04:31;100262.59;;;23.73
67599;BMP280;62026;39.230;9.122;2023-06-14T03:07:04;100258.28;;;23.72
67599;BMP280;62026;39.230;9.122;2023-06-14T03:09:37;100252.25;;;23.66
67599;BMP280;62026;39.230;9.122;2023-06-14T03:12:05;100246.88;;;23.66
67599;BMP280;62026;39.230;9.122;2023-06-14T03:14:35;100250.81;;;23.69
67599;BMP280;62026;39.230;9.122;2023-06-14T03:17:03;100251.63;;;23.69
67599;BMP280;62026;39.230;9.122;2023-06-14T03:19:32;100265.63;;;23.71
67599;BMP280;62026;39.230;9.122;2023-06-14T03:21:58;100268.78;;;23.73
67599;BMP280;62026;39.230;9.122;2023-06-14T03:24:26;100263.38;;;23.73
67599;BMP280;62026;39.230;9.122;2023-06-14T03:26:58;100264.19;;;23.74
67599;BMP280;62026;39.230;9.122;2023-06-14T03:29:27;100262.91;;;23.80
67599;BMP280;62026;39.230;9.122;2023-06-14T03:32:02;100248.94;;;23.78
67599;BMP280;62026;39.230;9.122;2023-06-14T03:34:41;100247.53;;;23.80
67599;BMP280;62026;39.230;9.122;2023-06-14T03:37:12;100255.63;;;23.80
67599;BMP280;62026;39.230;9.122;2023-06-14T03:39:38;100253.56;;;23.77
67599;BMP280;62026;39.230;9.122;2023-06-14T03:42:15;100258.00;;;23.73
67599;BMP280;62026;39.230;9.122;2023-06-14T03:44:42;100250.34;;;23.75
67599;BMP280;62026;39.230;9.122;2023-06-14T03:47:08;100256.41;;;23.72
67599;BMP280;62026;39.230;9.122;2023-06-14T03:49:35;100259.44;;;23.71
67599;BMP280;62026;39.230;9.122;2023-06-14T03:52:02;100264.81;;;23.71
67599;BMP280;62026;39.230;9.122;2023-06-14T03:54:30;100267.97;;;23.73
67599;BMP280;62026;39.230;9.122;2023-06-14T03:56:59;100264.00;;;23.70
67599;BMP280;62026;39.230;9.122;2023-06-14T03:59:26;100274.78;;;23.70
67599;BMP280;62026;39.230;9.122;2023-06-14T04:01:54;100274.78;;;23.70
67599;BMP280;62026;39.230;9.122;2023-06-14T04:04:20;100273.97;;;23.70
67599;BMP280;62026;39.230;9.122;2023-06-14T04:06:47;100271.78;;;23.72
67599;BMP280;62026;39.230;9.122;2023-06-14T04:09:14;100272.56;;;23.72
67599;BMP280;62026;39.230;9.122;2023-06-14T04:11:41;100276.06;;;23.73
67599;BMP280;62026;39.230;9.122;2023-06-14T04:14:06;100258.00;;;23.73
67599;BMP280;62026;39.230;9.122;2023-06-14T04:16:33;100255.28;;;23.73
67599;BMP280;62026;39.230;9.122;2023-06-14T04:19:00;100260.69;;;23.73
67599;BMP280;62026;39.230;9.122;2023-06-14T04:21:27;100260.69;;;23.73
67599;BMP280;62026;39.230;9.122;2023-06-14T04:23:55;100261.78;;;23.72
67599;BMP280;62026;39.230;9.122;2023-06-14T04:26:24;100269.06;;;23.72
67599;BMP280;62026;39.230;9.122;2023-06-14T04:28:56;100271.16;;;23.75
67599;BMP280;62026;39.230;9.122;2023-06-14T04:31:29;100270.38;;;23.74
67599;BMP280;62026;39.230;9.122;2023-06-14T04:33:56;100269.56;;;23.74
67599;BMP280;62026;39.230;9.122;2023-06-14T04:36:22;100260.03;;;23.76
67599;BMP280;62026;39.230;9.122;2023-06-14T04:38:49;100271.94;;;23.75
67599;BMP280;62026;39.230;9.122;2023-06-14T04:41:16;100264.00;;;23.70
67599;BMP280;62026;39.230;9.122;2023-06-14T04:43:44;100258.75;;;23.65
67599;BMP280;62026;39.230;9.122;2023-06-14T04:46:15;100262.25;;;23.66
67599;BMP280;62026;39.230;9.122;2023-06-14T04:48:42;100255.41;;;23.68
67599;BMP280;62026;39.230;9.122;2023-06-14T04:51:10;100267.97;;;23.73
67599;BMP280;62026;39.230;9.122;2023-06-14T04:53:36;100266.19;;;23.68
67599;BMP280;62026;39.230;9.122;2023-06-14T04:56:03;100249.88;;;23.65
67599;BMP280;62026;39.230;9.122;2023-06-14T04:58:31;100253.69;;;23.64
67599;BMP280;62026;39.230;9.122;2023-06-14T05:00:58;100258.91;;;23.60
67599;BMP280;62026;39.230;9.122;2023-06-14T05:03:26;100245.78;;;23.67
67599;BMP280;62026;39.230;9.122;2023-06-14T05:05:53;100236.06;;;23.58
67599;BMP280;62026;39.230;9.122;2023-06-14T05:08:21;100231.78;;;23.57
67599;BMP280;62026;39.230;9.122;2023-06-14T05:10:50;100231.59;;;23.53
67599;BMP280;62026;39.230;9.122;2023-06-14T05:13:16;100226.84;;;23.50
67599;BMP280;62026;39.230;9.122;2023-06-14T05:15:44;100237.34;;;23.60
67599;BMP280;62026;39.230;9.122;2023-06-14T05:18:11;100232.56;;;23.57
67599;BMP280;62026;39.230;9.122;2023-06-14T05:20:39;100240.69;;;23.66
67599;BMP280;62026;39.230;9.122;2023-06-14T05:23:05;100249.56;;;23.66
67599;BMP280;62026;39.230;9.122;2023-06-14T05:25:31;100239.25;;;23.68
67599;BMP280;62026;39.230;9.122;2023-06-14T05:27:57;100244.63;;;23.68
67599;BMP280;62026;39.230;9.122;2023-06-14T05:30:23;100237.03;;;23.70
67599;BMP280;62026;39.230;9.122;2023-06-14T05:32:49;100245.78;;;23.76
67599;BMP280;62026;39.230;9.122;2023-06-14T05:35:16;100245.63;;;23.72
67599;BMP280;62026;39.230;9.122;2023-06-14T05:37:42;100253.69;;;23.72
67599;BMP280;62026;39.230;9.122;2023-06-14T05:40:08;100248.81;;;23.74
67599;BMP280;62026;39.230;9.122;2023-06-14T05:42:34;100249.91;;;23.73
67599;BMP280;62026;39.230;9.122;2023-06-14T05:45:00;100254.34;;;23.78
67599;BMP280;62026;39.230;9.122;2023-06-14T05:47:27;100266.53;;;23.75
67599;BMP280;62026;39.230;9.122;2023-06-14T05:49:53;100256.09;;;23.82
67599;BMP280;62026;39.230;9.122;2023-06-14T05:52:20;100247.22;;;23.73
67599;BMP280;62026;39.230;9.122;2023-06-14T05:54:47;100257.34;;;23.76
67599;BMP280;62026;39.230;9.122;2023-06-14T05:57:13;100255.16;;;23.78
67599;BMP280;62026;39.230;9.122;2023-06-14T05:59:39;100262.28;;;23.74
67599;BMP280;62026;39.230;9.122;2023-06-14T06:02:05;100278.00;;;23.81
67599;BMP280;62026;39.230;9.122;2023-06-14T06:04:31;100290.38;;;23.82
67599;BMP280;62026;39.230;9.122;2023-06-14T06:06:57;100302.41;;;23.84
67599;BMP280;62026;39.230;9.122;2023-06-14T06:09:23;100295.72;;;23.73
67599;BMP280;62026;39.230;9.122;2023-06-14T06:11:49;100288.66;;;23.55
67599;BMP280;62026;39.230;9.122;2023-06-14T06:14:16;100292.38;;;23.68
67599;BMP280;62026;39.230;9.122;2023-06-14T06:16:41;100287.59;;;23.56
67599;BMP280;62026;39.230;9.122;2023-06-14T06:19:07;100289.19;;;23.66
67599;BMP280;62026;39.230;9.122;2023-06-14T06:21:33;100284.47;;;23.71
67599;BMP280;62026;39.230;9.122;2023-06-14T06:23:59;100284.59;;;23.66
67599;BMP280;62026;39.230;9.122;2023-06-14T06:26:29;100273.81;;;23.66
67599;BMP280;62026;39.230;9.122;2023-06-14T06:28:55;100262.91;;;23.71
67599;BMP280;62026;39.230;9.122;2023-06-14T06:31:23;100253.41;;;23.74
67599;BMP280;62026;39.230;9.122;2023-06-14T06:33:50;100263.16;;;23.61
67599;BMP280;62026;39.230;9.122;2023-06-14T06:36:16;100252.72;;;23.68
67599;BMP280;62026;39.230;9.122;2023-06-14T06:38:42;100254.03;;;23.71
67599;BMP280;62026;39.230;9.122;2023-06-14T06:41:08;100257.66;;;23.66
67599;BMP280;62026;39.230;9.122;2023-06-14T06:43:34;100253.06;;;23.67
67599;BMP280;62026;39.230;9.122;2023-06-14T06:46:01;100264.97;;;23.74
67599;BMP280;62026;39.230;9.122;2023-06-14T06:48:28;100267.97;;;23.73
67599;BMP280;62026;39.230;9.122;2023-06-14T06:50:54;100277.00;;;23.77
67599;BMP280;62026;39.230;9.122;2023-06-14T06:53:20;100271.34;;;23.78
67599;BMP280;62026;39.230;9.122;2023-06-14T06:55:46;100267.00;;;23.69
67599;BMP280;62026;39.230;9.122;2023-06-14T06:58:14;100277.31;;;23.67
67599;BMP280;62026;39.230;9.122;2023-06-14T07:00:41;100279.56;;;23.73
67599;BMP280;62026;39.230;9.122;2023-06-14T07:03:07;100276.97;;;23.68
67599;BMP280;62026;39.230;9.122;2023-06-14T07:05:33;100276.56;;;23.75
67599;BMP280;62026;39.230;9.122;2023-06-14T07:07:59;100273.03;;;23.66
67599;BMP280;62026;39.230;9.122;2023-06-14T07:10:25;100267.53;;;23.79
67599;BMP280;62026;39.230;9.122;2023-06-14T07:12:52;100257.00;;;23.69
67599;BMP280;62026;39.230;9.122;2023-06-14T07:15:18;100246.56;;;23.76
67599;BMP280;62026;39.230;9.122;2023-06-14T07:17:44;100248.00;;;23.74
67599;BMP280;62026;39.230;9.122;2023-06-14T07:20:10;100240.38;;;23.67
67599;BMP280;62026;39.230;9.122;2023-06-14T07:22:42;100242.91;;;23.64
67599;BMP280;62026;39.230;9.122;2023-06-14T07:25:12;100237.53;;;23.72
67599;BMP280;62026;39.230;9.122;2023-06-14T07:27:43;100239.16;;;23.82
67599;BMP280;62026;39.230;9.122;2023-06-14T07:30:10;100233.09;;;23.68
67599;BMP280;62026;39.230;9.122;2023-06-14T07:32:36;100235.00;;;23.84
67599;BMP280;62026;39.230;9.122;2023-06-14T07:35:02;100230.09;;;23.86
67599;BMP280;62026;39.230;9.122;2023-06-14T07:37:29;100227.72;;;23.85
67599;BMP280;62026;39.230;9.122;2023-06-14T07:39:55;100249.81;;;23.95
67599;BMP280;62026;39.230;9.122;2023-06-14T07:42:21;100241.22;;;23.93
67599;BMP280;62026;39.230;9.122;2023-06-14T07:44:47;100249.00;;;23.95
67599;BMP280;62026;39.230;9.122;2023-06-14T07:47:13;100253.13;;;24.01
67599;BMP280;62026;39.230;9.122;2023-06-14T07:49:39;100258.69;;;24.05
67599;BMP280;62026;39.230;9.122;2023-06-14T07:52:05;100258.69;;;24.05
67599;BMP280;62026;39.230;9.122;2023-06-14T07:54:31;100260.91;;;24.03
67599;BMP280;62026;39.230;9.122;2023-06-14T07:56:58;100265.78;;;24.01
67599;BMP280;62026;39.230;9.122;2023-06-14T07:59:26;100259.59;;;23.91
67599;BMP280;62026;39.230;9.122;2023-06-14T08:01:52;100261.53;;;24.00
67599;BMP280;62026;39.230;9.122;2023-06-14T08:04:18;100267.72;;;24.00
67599;BMP280;62026;39.230;9.122;2023-06-14T08:06:44;100265.22;;;24.04
67599;BMP280;62026;39.230;9.122;2023-06-14T08:09:12;100276.47;;;24.06
67599;BMP280;62026;39.230;9.122;2023-06-14T08:11:38;100273.13;;;24.09
67599;BMP280;62026;39.230;9.122;2023-06-14T08:14:04;100270.28;;;24.14
67599;BMP280;62026;39.230;9.122;2023-06-14T08:16:30;100265.34;;;24.16
67599;BMP280;62026;39.230;9.122;2023-06-14T08:18:56;100274.53;;;24.15
67599;BMP280;62026;39.230;9.122;2023-06-14T08:21:22;100275.19;;;24.12
67599;BMP280;62026;39.230;9.122;2023-06-14T08:23:49;100278.97;;;23.93
67599;BMP280;62026;39.230;9.122;2023-06-14T08:26:18;100270.91;;;24.02
67599;BMP280;62026;39.230;9.122;2023-06-14T08:28:44;100288.22;;;24.10
67599;BMP280;62026;39.230;9.122;2023-06-14T08:31:11;100288.03;;;24.15
67599;BMP280;62026;39.230;9.122;2023-06-14T08:33:37;100294.28;;;24.24
67599;BMP280;62026;39.230;9.122;2023-06-14T08:36:03;100295.06;;;24.24
67599;BMP280;62026;39.230;9.122;2023-06-14T08:38:29;100297.44;;;24.26
67599;BMP280;62026;39.230;9.122;2023-06-14T08:40:57;100296.31;;;24.44
67599;BMP280;62026;39.230;9.122;2023-06-14T08:43:24;100284.56;;;24.57
67599;BMP280;62026;39.230;9.122;2023-06-14T08:45:58;100283.78;;;24.65
67599;BMP280;62026;39.230;9.122;2023-06-14T08:48:27;100282.03;;;24.69
67599;BMP280;62026;39.230;9.122;2023-06-14T08:50:56;100272.00;;;24.79
67599;BMP280;62026;39.230;9.122;2023-06-14T08:53:30;100262.00;;;24.88
67599;BMP280;62026;39.230;9.122;2023-06-14T08:55:59;100265.63;;;24.92
67599;BMP280;62026;39.230;9.122;2023-06-14T08:58:33;100271.03;;;24.92
67599;BMP280;62026;39.230;9.122;2023-06-14T09:01:01;100273.25;;;24.90
67599;BMP280;62026;39.230;9.122;2023-06-14T09:03:27;100266.59;;;24.79
67599;BMP280;62026;39.230;9.122;2023-06-14T09:05:59;100271.03;;;24.83
67599;BMP280;62026;39.230;9.122;2023-06-14T09:08:30;100284.84;;;24.82
67599;BMP280;62026;39.230;9.122;2023-06-14T09:10:57;100287.44;;;24.78
67599;BMP280;62026;39.230;9.122;2023-06-14T09:13:23;100288.38;;;24.73
67599;BMP280;62026;39.230;9.122;2023-06-14T09:15:50;100302.84;;;24.78
67599;BMP280;62026;39.230;9.122;2023-06-14T09:18:16;100301.22;;;24.76
67599;BMP280;62026;39.230;9.122;2023-06-14T09:20:43;100291.41;;;24.72
67599;BMP280;62026;39.230;9.122;2023-06-14T09:23:09;100304.72;;;24.68
67599;BMP280;62026;39.230;9.122;2023-06-14T09:25:46;100304.91;;;24.72
67599;BMP280;62026;39.230;9.122;2023-06-14T09:28:12;100321.91;;;24.72
67599;BMP280;62026;39.230;9.122;2023-06-14T09:30:38;100316.63;;;24.76
67599;BMP280;62026;39.230;9.122;2023-06-14T09:33:04;100317.75;;;24.84
67599;BMP280;62026;39.230;9.122;2023-06-14T09:35:33;100319.16;;;24.90
67599;BMP280;62026;39.230;9.122;2023-06-14T09:37:59;100318.72;;;24.88
67599;BMP280;62026;39.230;9.122;2023-06-14T09:40:26;100316.94;;;24.92
67599;BMP280;62026;39.230;9.122;2023-06-14T09:42:54;100319.03;;;24.95
67599;BMP280;62026;39.230;9.122;2023-06-14T09:45:24;100320.75;;;24.91
67599;BMP280;62026;39.230;9.122;2023-06-14T09:47:55;100328.25;;;24.85
67599;BMP280;62026;39.230;9.122;2023-06-14T09:50:21;100333.81;;;24.80
67599;BMP280;62026;39.230;9.122;2023-06-14T09:52:52;100335.41;;;24.81
67599;BMP280;62026;39.230;9.122;2023-06-14T09:55:19;100333.63;;;24.76
67599;BMP280;62026;39.230;9.122;2023-06-14T09:57:47;100319.06;;;24.78
67599;BMP280;62026;39.230;9.122;2023-06-14T10:00:15;100309.50;;;24.71
67599;BMP280;62026;39.230;9.122;2023-06-14T10:02:50;100312.19;;;24.71
67599;BMP280;62026;39.230;9.122;2023-06-14T10:05:19;100298.88;;;24.66
67599;BMP280;62026;39.230;9.122;2023-06-14T10:10:14;100309.00;;;24.61
67599;BMP280;62026;39.230;9.122;2023-06-14T10:12:40;100321.25;;;24.58
67599;BMP280;62026;39.230;9.122;2023-06-14T10:15:10;100332.06;;;24.58
67599;BMP280;62026;39.230;9.122;2023-06-14T10:17:57;100322.38;;;24.57
67599;BMP280;62026;39.230;9.122;2023-06-14T10:20:41;100323.66;;;24.60
67599;BMP280;62026;39.230;9.122;2023-06-14T10:23:18;100332.06;;;24.58
67599;BMP280;62026;39.230;9.122;2023-06-14T10:25:54;100332.97;;;24.54
67599;BMP280;62026;39.230;9.122;2023-06-14T10:28:21;100336.50;;;24.54
67599;BMP280;62026;39.230;9.122;2023-06-14T10:31:11;100341.41;;;24.52
67599;BMP280;62026;39.230;9.122;2023-06-14T10:33:59;100358.72;;;24.51
67599;BMP280;62026;39.230;9.122;2023-06-14T10:36:30;100361.13;;;24.53
67599;BMP280;62026;39.230;9.122;2023-06-14T10:39:17;100370.78;;;24.54
67599;BMP280;62026;39.230;9.122;2023-06-14T10:41:55;100377.47;;;24.39
67599;BMP280;62026;39.230;9.122;2023-06-14T10:46:53;100391.72;;;24.31
67599;BMP280;62026;39.230;9.122;2023-06-14T10:49:23;100393.75;;;24.25
67599;BMP280;62026;39.230;9.122;2023-06-14T10:52:03;100397.06;;;24.14
67599;BMP280;62026;39.230;9.122;2023-06-14T10:54:32;100396.72;;;24.07
67599;BMP280;62026;39.230;9.122;2023-06-14T10:56:59;100403.56;;;24.13
67599;BMP280;62026;39.230;9.122;2023-06-14T10:59:25;100409.41;;;24.06
67599;BMP280;62026;39.230;9.122;2023-06-14T11:04:47;100419.28;;;23.80
67599;BMP280;62026;39.230;9.122;2023-06-14T11:10:39;100410.66;;;23.69
67599;BMP280;62026;39.230;9.122;2023-06-14T11:13:09;100413.63;;;23.59
67599;BMP280;62026;39.230;9.122;2023-06-14T11:15:37;100418.69;;;23.61
67599;BMP280;62026;39.230;9.122;2023-06-14T11:18:07;100416.69;;;23.44
67599;BMP280;62026;39.230;9.122;2023-06-14T11:20:35;100416.06;;;23.47
67599;BMP280;62026;39.230;9.122;2023-06-14T11:23:03;100413.13;;;23.35
67599;BMP280;62026;39.230;9.122;2023-06-14T11:25:30;100416.69;;;23.22
67599;BMP280;62026;39.230;9.122;2023-06-14T11:27:57;100419.94;;;23.32
67599;BMP280;62026;39.230;9.122;2023-06-14T11:30:23;100410.25;;;23.31
67599;BMP280;62026;39.230;9.122;2023-06-14T11:32:53;100410.44;;;23.35
67599;BMP280;62026;39.230;9.122;2023-06-14T11:35:22;100415.16;;;23.29
67599;BMP280;62026;39.230;9.122;2023-06-14T11:37:53;100422.94;;;23.31
67599;BMP280;62026;39.230;9.122;2023-06-14T11:40:19;100412.41;;;23.21
67599;BMP280;62026;39.230;9.122;2023-06-14T11:42:45;100403.84;;;23.19
67599;BMP280;62026;39.230;9.122;2023-06-14T11:45:12;100403.06;;;23.18
67599;BMP280;62026;39.230;9.122;2023-06-14T11:47:39;100392.81;;;23.29
67599;BMP280;62026;39.230;9.122;2023-06-14T11:50:10;100394.03;;;23.23
67599;BMP280;62026;39.230;9.122;2023-06-14T11:52:37;100385.47;;;23.21
67599;BMP280;62026;39.230;9.122;2023-06-14T11:55:04;100377.72;;;23.19
67599;BMP280;62026;39.230;9.122;2023-06-14T11:57:34;100372.63;;;23.17
67599;BMP280;62026;39.230;9.122;2023-06-14T12:00:04;100367.34;;;23.12
67599;BMP280;62026;39.230;9.122;2023-06-14T12:02:38;100377.75;;;23.05
67599;BMP280;62026;39.230;9.122;2023-06-14T12:05:07;100378.97;;;22.99
67599;BMP280;62026;39.230;9.122;2023-06-14T12:07:40;100369.19;;;23.03
67599;BMP280;62026;39.230;9.122;2023-06-14T12:10:08;100366.50;;;23.03
67599;BMP280;62026;39.230;9.122;2023-06-14T12:12:38;100362.81;;;22.99
67599;BMP280;62026;39.230;9.122;2023-06-14T12:15:07;100363.59;;;23.00
67599;BMP280;62026;39.230;9.122;2023-06-14T12:17:37;100370.72;;;22.96
67599;BMP280;62026;39.230;9.122;2023-06-14T12:20:10;100362.09;;;23.07
67599;BMP280;62026;39.230;9.122;2023-06-14T12:22:37;100362.09;;;23.07
67599;BMP280;62026;39.230;9.122;2023-06-14T12:25:05;100361.00;;;23.08
67599;BMP280;62026;39.230;9.122;2023-06-14T12:27:31;100361.84;;;22.95
67599;BMP280;62026;39.230;9.122;2023-06-14T12:30:03;100364.25;;;22.97
67599;BMP280;62026;39.230;9.122;2023-06-14T12:32:30;100367.31;;;23.04
67599;BMP280;62026;39.230;9.122;2023-06-14T12:34:56;100361.91;;;23.04
67599;BMP280;62026;39.230;9.122;2023-06-14T12:37:22;100361.00;;;23.08
67599;BMP280;62026;39.230;9.122;2023-06-14T12:39:49;100363.53;;;23.13
67599;BMP280;62026;39.230;9.122;2023-06-14T12:42:16;100347.59;;;23.17
67599;BMP280;62026;39.230;9.122;2023-06-14T12:44:42;100343.97;;;23.22
67599;BMP280;62026;39.230;9.122;2023-06-14T12:47:08;100338.94;;;23.29
67599;BMP280;62026;39.230;9.122;2023-06-14T12:49:34;100337.22;;;23.33
67599;BMP280;62026;39.230;9.122;2023-06-14T12:52:00;100330.41;;;23.35
67599;BMP280;62026;39.230;9.122;2023-06-14T12:54:26;100313.94;;;23.37
67599;BMP280;62026;39.230;9.122;2023-06-14T12:56:52;100304.78;;;23.38
67599;BMP280;62026;39.230;9.122;2023-06-14T12:59:19;100306.16;;;23.35
67599;BMP280;62026;39.230;9.122;2023-06-14T13:01:45;100301.56;;;23.36
67599;BMP280;62026;39.230;9.122;2023-06-14T13:04:11;100297.06;;;23.23
67599;BMP280;62026;39.230;9.122;2023-06-14T13:06:37;100295.38;;;23.27
67599;BMP280;62026;39.230;9.122;2023-06-14T13:09:03;100283.81;;;23.35
67599;BMP280;62026;39.230;9.122;2023-06-14T13:11:29;100267.47;;;23.31
67599;BMP280;62026;39.230;9.122;2023-06-14T13:13:56;100248.69;;;23.40
67599;BMP280;62026;39.230;9.122;2023-06-14T13:16:22;100251.97;;;23.37
67599;BMP280;62026;39.230;9.122;2023-06-14T13:18:48;100261.91;;;23.28
67599;BMP280;62026;39.230;9.122;2023-06-14T13:21:14;100276.69;;;23.30
67599;BMP280;62026;39.230;9.122;2023-06-14T13:23:39;100279.03;;;23.32
67599;BMP280;62026;39.230;9.122;2023-06-14T13:26:05;100269.25;;;23.36
67599;BMP280;62026;39.230;9.122;2023-06-14T13:28:31;100260.06;;;23.37
67599;BMP280;62026;39.230;9.122;2023-06-14T13:30:58;100251.38;;;23.40
67599;BMP280;62026;39.230;9.122;2023-06-14T13:33:24;100246.31;;;23.47
67599;BMP280;62026;39.230;9.122;2023-06-14T13:35:50;100246.19;;;23.52
67599;BMP280;62026;39.230;9.122;2023-06-14T13:38:18;100246.84;;;23.58
67599;BMP280;62026;39.230;9.122;2023-06-14T13:40:44;100253.50;;;23.60
67599;BMP280;62026;39.230;9.122;2023-06-14T13:43:10;100245.53;;;23.55
67599;BMP280;62026;39.230;9.122;2023-06-14T13:45:36;100239.88;;;23.65
67599;BMP280;62026;39.230;9.122;2023-06-14T13:48:02;100223.72;;;23.65
67599;BMP280;62026;39.230;9.122;2023-06-14T13:50:28;100214.84;;;23.73
67599;BMP280;62026;39.230;9.122;2023-06-14T13:52:54;100204.22;;;23.77
67599;BMP280;62026;39.230;9.122;2023-06-14T13:55:20;100209.66;;;23.94
67599;BMP280;62026;39.230;9.122;2023-06-14T13:57:47;100212.53;;;23.89
67599;BMP280;62026;39.230;9.122;2023-06-14T14:00:13;100211.56;;;23.93
67599;BMP280;62026;39.230;9.122;2023-06-14T14:02:40;100213.22;;;23.55
67599;BMP280;62026;39.230;9.122;2023-06-14T14:05:07;100211.19;;;23.69
67599;BMP280;62026;39.230;9.122;2023-06-14T14:07:33;100206.47;;;23.75
67599;BMP280;62026;39.230;9.122;2023-06-14T14:10:00;100195.00;;;23.61
67599;BMP280;62026;39.230;9.122;2023-06-14T14:12:26;100187.69;;;23.52